Time;durP1;ratioP1;P1;durP2;ratioP2;P2;SDS_P1;SDS_P2;PMS_P1;PMS_P2;Temp;Humidity;BMP_temperature;BMP_pressure;BME280_temperature;BME280_humidity;BME280_pressure;Samples;Min_cycle;Max_cycle;Signal;HPM_P1;HPM_P2
2022/07/25 00:01:32;;;;;;;9.38;6.65;;;;;;;;;;5043475;28;20033;-68
2022/07/25 00:03:58;;;;;;;9.90;6.80;;;;;;;;;;5031321;28;20030;-68
2022/07/25 00:06:23;;;;;;;8.93;6.93;;;;;;;;;;5035574;28;20055;-68
2022/07/25 00:08:48;;;;;;;8.70;6.90;;;;;;;;;;5042205;28;20044;-68
2022/07/25 00:11:14;;;;;;;10.90;6.93;;;;;;;;;;5032497;28;20508;-68
2022/07/25 00:13:39;;;;;;;8.82;6.68;;;;;;;;;;5050672;28;20033;-67
2022/07/25 00:16:05;;;;;;;11.35;6.43;;;;;;;;;;5036223;28;20053;-69
2022/07/25 00:18:30;;;;;;;8.65;6.80;;;;;;;;;;5031281;28;20059;-68
2022/07/25 00:20:56;;;;;;;9.02;6.70;;;;;;;;;;5030989;28;20037;-68
2022/07/25 00:23:21;;;;;;;10.55;7.15;;;;;;;;;;5036995;28;20141;-68
2022/07/25 00:25:46;;;;;;;9.00;6.88;;;;;;;;;;5030118;28;20159;-67
2022/07/25 00:28:12;;;;;;;9.30;6.85;;;;;;;;;;5031248;28;20117;-68
2022/07/25 00:30:37;;;;;;;9.27;6.80;;;;;;;;;;5031397;28;20030;-68
2022/07/25 00:33:03;;;;;;;9.68;6.97;;;;;;;;;;5033547;28;20081;-70
2022/07/25 00:35:28;;;;;;;9.70;7.05;;;;;;;;;;5027635;28;20065;-68
2022/07/25 00:37:53;;;;;;;10.15;7.10;;;;;;;;;;5031431;28;20052;-69
2022/07/25 00:40:19;;;;;;;9.52;7.03;;;;;;;;;;5030170;28;20033;-68
2022/07/25 00:42:44;;;;;;;8.63;6.55;;;;;;;;;;5030455;28;20444;-68
2022/07/25 00:45:10;;;;;;;9.20;7.18;;;;;;;;;;5011703;28;20367;-68
2022/07/25 00:47:35;;;;;;;10.07;7.25;;;;;;;;;;5045584;28;20037;-68
2022/07/25 00:50:01;;;;;;;9.00;7.13;;;;;;;;;;5032642;28;20037;-68
2022/07/25 00:52:26;;;;;;;9.32;6.80;;;;;;;;;;5044440;28;20159;-68
2022/07/25 00:54:52;;;;;;;11.38;6.97;;;;;;;;;;5049486;28;20029;-68
2022/07/25 00:57:17;;;;;;;8.50;6.90;;;;;;;;;;5043594;28;20025;-68
2022/07/25 00:59:43;;;;;;;8.50;6.70;;;;;;;;;;5030306;28;20035;-68
2022/07/25 01:02:08;;;;;;;8.27;6.80;;;;;;;;;;5037621;28;20047;-68
2022/07/25 01:04:34;;;;;;;10.27;6.97;;;;;;;;;;5037731;28;20111;-67
2022/07/25 01:07:00;;;;;;;8.57;6.60;;;;;;;;;;5048604;28;20029;-68
2022/07/25 01:09:26;;;;;;;8.25;6.70;;;;;;;;;;5046074;28;20056;-68
2022/07/25 01:11:51;;;;;;;8.30;6.68;;;;;;;;;;5019129;28;20032;-68
2022/07/25 01:14:17;;;;;;;9.15;6.90;;;;;;;;;;5040551;28;20030;-68
2022/07/25 01:16:42;;;;;;;9.30;7.25;;;;;;;;;;5045006;28;20057;-68
2022/07/25 01:19:08;;;;;;;8.85;6.60;;;;;;;;;;5033895;28;20025;-69
2022/07/25 01:21:37;;;;;;;9.02;6.68;;;;;;;;;;5038214;28;20041;-69
2022/07/25 01:24:02;;;;;;;8.43;6.63;;;;;;;;;;5027315;28;20474;-68
2022/07/25 01:26:29;;;;;;;8.90;6.95;;;;;;;;;;5042083;28;20032;-69
2022/07/25 01:28:55;;;;;;;12.52;7.32;;;;;;;;;;5044249;28;20090;-68
2022/07/25 01:31:21;;;;;;;8.80;7.18;;;;;;;;;;5033862;28;20124;-68
2022/07/25 01:33:46;;;;;;;9.95;6.90;;;;;;;;;;5055110;28;20124;-68
2022/07/25 01:36:12;;;;;;;9.05;6.78;;;;;;;;;;5052032;28;20373;-69
2022/07/25 01:38:37;;;;;;;10.50;6.85;;;;;;;;;;5034605;28;20041;-68
2022/07/25 01:41:03;;;;;;;8.10;6.80;;;;;;;;;;5035174;28;20025;-68
2022/07/25 01:43:28;;;;;;;10.05;6.60;;;;;;;;;;5045835;28;20227;-68
2022/07/25 01:45:53;;;;;;;8.68;7.00;;;;;;;;;;5038969;28;20037;-68
2022/07/25 01:48:19;;;;;;;10.75;7.00;;;;;;;;;;5033857;28;20429;-68
2022/07/25 01:50:44;;;;;;;8.48;6.57;;;;;;;;;;5035410;28;20030;-68
2022/07/25 01:53:09;;;;;;;10.60;6.78;;;;;;;;;;5033477;28;20037;-71
2022/07/25 01:55:35;;;;;;;8.68;6.85;;;;;;;;;;5034773;28;20126;-69
2022/07/25 01:58:00;;;;;;;9.18;7.10;;;;;;;;;;5036326;28;20060;-69
2022/07/25 02:00:26;;;;;;;8.75;7.07;;;;;;;;;;5032063;28;20033;-68
2022/07/25 02:03:28;;;;;;;11.75;7.25;;;;;;;;;;5048093;28;20037;-68
2022/07/25 02:05:37;;;;;;;9.00;7.10;;;;;;;;;;5053887;28;20458;-69
2022/07/25 02:08:03;;;;;;;8.73;6.85;;;;;;;;;;5037554;28;20037;-68
2022/07/25 02:10:28;;;;;;;8.65;6.90;;;;;;;;;;5033492;28;20072;-68
2022/07/25 02:12:54;;;;;;;12.10;7.07;;;;;;;;;;5031696;28;20037;-69
2022/07/25 02:15:19;;;;;;;8.55;7.25;;;;;;;;;;5036219;28;20454;-68
2022/07/25 02:17:44;;;;;;;10.07;7.35;;;;;;;;;;5054656;28;20029;-68
2022/07/25 02:20:10;;;;;;;9.45;6.85;;;;;;;;;;5027444;28;20481;-70
2022/07/25 02:22:36;;;;;;;8.50;7.35;;;;;;;;;;5052261;28;20045;-68
2022/07/25 02:25:01;;;;;;;10.65;7.18;;;;;;;;;;5039043;28;20029;-68
2022/07/25 02:27:26;;;;;;;8.60;7.07;;;;;;;;;;5034824;28;20032;-68
2022/07/25 02:29:52;;;;;;;9.73;6.80;;;;;;;;;;5030849;28;20033;-69
2022/07/25 02:32:17;;;;;;;8.85;7.45;;;;;;;;;;5046161;28;20120;-68
2022/07/25 02:34:43;;;;;;;8.65;7.13;;;;;;;;;;5052426;28;20135;-68
2022/07/25 02:37:08;;;;;;;12.27;7.32;;;;;;;;;;5033207;28;20060;-68
2022/07/25 02:39:34;;;;;;;10.15;7.28;;;;;;;;;;5034877;28;20055;-69
2022/07/25 02:41:59;;;;;;;10.07;7.43;;;;;;;;;;5037899;28;20037;-69
2022/07/25 02:44:24;;;;;;;10.07;7.10;;;;;;;;;;5052842;28;20032;-69
2022/07/25 02:46:50;;;;;;;8.90;7.07;;;;;;;;;;5040959;28;20029;-69
2022/07/25 02:49:15;;;;;;;10.13;7.18;;;;;;;;;;5030321;28;20128;-69
2022/07/25 02:51:40;;;;;;;9.05;7.20;;;;;;;;;;5040132;28;20040;-70
2022/07/25 02:54:06;;;;;;;10.35;7.38;;;;;;;;;;5029172;28;20025;-68
2022/07/25 02:56:32;;;;;;;9.90;7.50;;;;;;;;;;5027777;28;20756;-69
2022/07/25 02:58:57;;;;;;;9.45;7.35;;;;;;;;;;5036851;28;20099;-69
2022/07/25 03:01:23;;;;;;;11.73;7.35;;;;;;;;;;5042026;28;20441;-68
2022/07/25 03:03:48;;;;;;;10.65;7.50;;;;;;;;;;5046518;28;20405;-68
2022/07/25 03:06:14;;;;;;;11.90;7.30;;;;;;;;;;5040940;28;20442;-69
2022/07/25 03:08:39;;;;;;;8.75;7.20;;;;;;;;;;5032838;28;20033;-69
2022/07/25 03:11:05;;;;;;;8.52;7.18;;;;;;;;;;5032834;28;20145;-67
2022/07/25 03:13:32;;;;;;;9.80;7.35;;;;;;;;;;5046310;28;20285;-68
2022/07/25 03:15:57;;;;;;;10.65;7.15;;;;;;;;;;5047128;28;20033;-68
2022/07/25 03:18:23;;;;;;;9.45;7.70;;;;;;;;;;5048015;28;20036;-68
2022/07/25 03:20:48;;;;;;;9.70;7.38;;;;;;;;;;5052806;28;20519;-68
2022/07/25 03:23:14;;;;;;;9.43;7.40;;;;;;;;;;5050913;28;20047;-70
2022/07/25 03:25:39;;;;;;;11.77;7.18;;;;;;;;;;5051617;28;20159;-69
2022/07/25 03:28:04;;;;;;;12.18;7.70;;;;;;;;;;5035303;28;20033;-68
2022/07/25 03:30:30;;;;;;;11.23;7.40;;;;;;;;;;5019350;28;20037;-68
2022/07/25 03:32:56;;;;;;;14.55;7.32;;;;;;;;;;5037516;28;20037;-68
2022/07/25 03:35:21;;;;;;;9.27;7.53;;;;;;;;;;5032044;28;20374;-68
2022/07/25 03:37:47;;;;;;;12.38;7.57;;;;;;;;;;5032230;28;20385;-68
2022/07/25 03:40:14;;;;;;;9.70;7.38;;;;;;;;;;5032539;28;20175;-67
2022/07/25 03:42:40;;;;;;;11.68;7.70;;;;;;;;;;5034878;28;20112;-68
2022/07/25 03:45:05;;;;;;;9.35;7.20;;;;;;;;;;5031662;28;20104;-71
2022/07/25 03:47:31;;;;;;;11.13;7.80;;;;;;;;;;5034136;28;20033;-70
2022/07/25 03:49:56;;;;;;;8.98;7.20;;;;;;;;;;5044159;28;20111;-71
2022/07/25 03:52:22;;;;;;;10.02;7.82;;;;;;;;;;5045983;28;20080;-69
2022/07/25 03:54:47;;;;;;;9.25;7.50;;;;;;;;;;5045654;28;20060;-68
2022/07/25 03:57:13;;;;;;;9.30;7.30;;;;;;;;;;5038108;28;20033;-69
2022/07/25 03:59:38;;;;;;;7.97;7.03;;;;;;;;;;5022212;28;21552;-69
2022/07/25 04:02:04;;;;;;;9.45;7.40;;;;;;;;;;5031255;28;20041;-69
2022/07/25 04:04:29;;;;;;;10.32;7.25;;;;;;;;;;5030398;28;20030;-69
2022/07/25 04:06:55;;;;;;;8.73;7.38;;;;;;;;;;5031791;28;20429;-70
2022/07/25 04:09:21;;;;;;;9.63;7.72;;;;;;;;;;5040641;28;20080;-69
2022/07/25 04:11:46;;;;;;;8.50;7.00;;;;;;;;;;5034952;28;20535;-69
2022/07/25 04:14:11;;;;;;;11.48;7.57;;;;;;;;;;5032177;28;20448;-69
2022/07/25 04:16:37;;;;;;;9.63;7.60;;;;;;;;;;5029972;28;20275;-69
2022/07/25 04:19:04;;;;;;;8.63;7.65;;;;;;;;;;5030568;28;20041;-69
2022/07/25 04:21:29;;;;;;;10.48;7.57;;;;;;;;;;5030476;28;20080;-69
2022/07/25 04:23:55;;;;;;;8.48;7.40;;;;;;;;;;5031492;28;20074;-68
2022/07/25 04:26:21;;;;;;;9.40;7.05;;;;;;;;;;5039509;28;20474;-69
2022/07/25 04:28:46;;;;;;;10.60;7.25;;;;;;;;;;5031069;28;20426;-69
2022/07/25 04:31:11;;;;;;;10.13;7.10;;;;;;;;;;5031586;28;20580;-69
2022/07/25 04:33:38;;;;;;;8.60;6.95;;;;;;;;;;5029780;28;20033;-70
2022/07/25 04:36:04;;;;;;;9.48;7.30;;;;;;;;;;5029257;28;20029;-70
2022/07/25 04:38:30;;;;;;;9.90;7.30;;;;;;;;;;5048944;28;20043;-69
2022/07/25 04:40:55;;;;;;;11.25;7.57;;;;;;;;;;5036351;28;20029;-69
2022/07/25 04:43:21;;;;;;;9.25;7.18;;;;;;;;;;5033014;28;20056;-70
2022/07/25 04:45:46;;;;;;;11.32;7.10;;;;;;;;;;5036277;28;20044;-69
2022/07/25 04:48:11;;;;;;;8.85;7.07;;;;;;;;;;5027288;28;20033;-70
2022/07/25 04:50:37;;;;;;;9.20;7.05;;;;;;;;;;5012972;28;20674;-69
2022/07/25 04:53:03;;;;;;;10.98;7.10;;;;;;;;;;5045498;28;20116;-69
2022/07/25 04:55:29;;;;;;;12.32;6.85;;;;;;;;;;5048274;28;20049;-69
2022/07/25 04:57:54;;;;;;;9.60;6.63;;;;;;;;;;5046297;28;20478;-70
2022/07/25 05:00:19;;;;;;;10.80;6.45;;;;;;;;;;5030835;28;20034;-70
2022/07/25 05:02:45;;;;;;;10.95;6.50;;;;;;;;;;5030678;28;20112;-69
2022/07/25 05:05:10;;;;;;;8.88;6.43;;;;;;;;;;5031222;28;20029;-69
2022/07/25 05:07:36;;;;;;;9.10;6.60;;;;;;;;;;5043121;28;20106;-69
2022/07/25 05:10:03;;;;;;;9.57;6.50;;;;;;;;;;5050844;28;20032;-69
2022/07/25 05:12:28;;;;;;;12.13;6.30;;;;;;;;;;5030192;28;20390;-67
2022/07/25 05:14:53;;;;;;;9.07;6.80;;;;;;;;;;5035641;28;20037;-67
2022/07/25 05:17:19;;;;;;;10.20;6.90;;;;;;;;;;5031064;28;20482;-70
2022/07/25 05:19:45;;;;;;;8.77;6.57;;;;;;;;;;5030517;28;20056;-65
2022/07/25 05:22:10;;;;;;;11.15;6.65;;;;;;;;;;5042318;28;20025;-70
2022/07/25 05:24:36;;;;;;;8.90;6.53;;;;;;;;;;5030140;28;20057;-70
2022/07/25 05:27:03;;;;;;;8.05;6.70;;;;;;;;;;5029604;28;20039;-70
2022/07/25 05:29:29;;;;;;;12.50;6.80;;;;;;;;;;5050144;28;20029;-71
2022/07/25 05:31:55;;;;;;;13.43;7.03;;;;;;;;;;5033144;28;20040;-70
2022/07/25 05:34:20;;;;;;;9.32;6.65;;;;;;;;;;5030205;28;20030;-73
2022/07/25 05:36:46;;;;;;;11.90;7.15;;;;;;;;;;5045941;28;20397;-72
2022/07/25 05:39:11;;;;;;;10.18;7.05;;;;;;;;;;5037384;28;20029;-70
2022/07/25 05:41:37;;;;;;;9.18;6.80;;;;;;;;;;5012392;28;20036;-69
2022/07/25 05:44:02;;;;;;;10.25;6.72;;;;;;;;;;5030758;28;20056;-71
2022/07/25 05:46:28;;;;;;;8.07;6.30;;;;;;;;;;5033020;28;20769;-70
2022/07/25 05:48:53;;;;;;;10.93;6.90;;;;;;;;;;5046955;28;20044;-71
2022/07/25 05:51:18;;;;;;;9.55;6.47;;;;;;;;;;5047127;28;20037;-70
2022/07/25 05:53:44;;;;;;;16.95;7.60;;;;;;;;;;5029992;28;20033;-70
2022/07/25 05:56:09;;;;;;;15.48;6.90;;;;;;;;;;5030616;28;20053;-71
2022/07/25 05:58:39;;;;;;;17.40;7.20;;;;;;;;;;5047873;28;20115;-71
2022/07/25 06:01:06;;;;;;;20.02;7.30;;;;;;;;;;5031081;28;20033;-70
2022/07/25 06:03:33;;;;;;;19.40;6.85;;;;;;;;;;5030285;28;20156;-71
2022/07/25 06:05:59;;;;;;;22.65;7.05;;;;;;;;;;5045605;28;20037;-69
2022/07/25 06:08:27;;;;;;;12.00;6.18;;;;;;;;;;5048692;28;20033;-72
2022/07/25 06:10:53;;;;;;;10.95;6.03;;;;;;;;;;5049280;28;20465;-71
2022/07/25 06:13:19;;;;;;;12.18;6.43;;;;;;;;;;5052241;28;20032;-69
2022/07/25 06:15:44;;;;;;;11.30;5.70;;;;;;;;;;5045155;28;20025;-70
2022/07/25 06:18:09;;;;;;;9.57;6.22;;;;;;;;;;5032844;28;20040;-70
2022/07/25 06:20:35;;;;;;;24.42;7.82;;;;;;;;;;5033486;28;20044;-70
2022/07/25 06:23:02;;;;;;;10.65;5.97;;;;;;;;;;5035378;28;20138;-70
2022/07/25 06:25:27;;;;;;;14.10;6.40;;;;;;;;;;5043033;28;20036;-71
2022/07/25 06:27:52;;;;;;;11.52;6.13;;;;;;;;;;5046701;28;20029;-69
2022/07/25 06:30:18;;;;;;;9.15;5.85;;;;;;;;;;5050873;28;20421;-67
2022/07/25 06:32:43;;;;;;;10.77;6.18;;;;;;;;;;5034590;28;20056;-71
2022/07/25 06:35:09;;;;;;;7.50;5.60;;;;;;;;;;5033863;28;20032;-69
2022/07/25 06:37:37;;;;;;;10.27;6.30;;;;;;;;;;5042436;28;20112;-70
2022/07/25 06:40:03;;;;;;;9.45;5.70;;;;;;;;;;5045076;28;20064;-70
2022/07/25 06:42:30;;;;;;;8.95;5.88;;;;;;;;;;5038018;28;20151;-71
2022/07/25 06:44:55;;;;;;;7.53;5.68;;;;;;;;;;5047153;28;20033;-70
2022/07/25 06:47:21;;;;;;;10.30;5.82;;;;;;;;;;5033130;28;20030;-71
2022/07/25 06:49:46;;;;;;;9.68;5.72;;;;;;;;;;5046481;28;20060;-70
2022/07/25 06:52:12;;;;;;;9.60;5.75;;;;;;;;;;5048915;28;20037;-71
2022/07/25 06:54:38;;;;;;;9.98;5.60;;;;;;;;;;5052778;28;20366;-70
2022/07/25 06:57:04;;;;;;;7.90;5.32;;;;;;;;;;5038203;28;20103;-67
2022/07/25 06:59:30;;;;;;;8.77;5.63;;;;;;;;;;5047819;28;20401;-69
2022/07/25 07:01:55;;;;;;;16.13;6.05;;;;;;;;;;5036279;28;20034;-68
2022/07/25 07:04:21;;;;;;;17.55;6.65;;;;;;;;;;5034829;28;20034;-68
2022/07/25 07:06:46;;;;;;;15.60;5.93;;;;;;;;;;5041561;28;20371;-68
2022/07/25 07:09:11;;;;;;;23.38;7.07;;;;;;;;;;5048928;28;20035;-68
2022/07/25 07:11:37;;;;;;;15.35;6.15;;;;;;;;;;5038806;28;20410;-69
2022/07/25 07:14:03;;;;;;;9.85;5.85;;;;;;;;;;5040472;28;20029;-71
2022/07/25 07:16:29;;;;;;;12.23;5.43;;;;;;;;;;5033616;28;20493;-71
2022/07/25 07:18:55;;;;;;;7.35;5.43;;;;;;;;;;5045887;28;20542;-68
2022/07/25 07:21:21;;;;;;;9.40;5.43;;;;;;;;;;5042206;28;20426;-70
2022/07/25 07:23:46;;;;;;;7.90;5.68;;;;;;;;;;5050481;28;20060;-69
2022/07/25 07:26:12;;;;;;;8.50;5.68;;;;;;;;;;5036883;28;20037;-67
2022/07/25 07:28:38;;;;;;;11.27;5.55;;;;;;;;;;5034464;28;20037;-69
2022/07/25 07:31:03;;;;;;;7.78;5.40;;;;;;;;;;5039489;28;20055;-69
2022/07/25 07:33:29;;;;;;;8.32;5.43;;;;;;;;;;5050844;28;20040;-70
2022/07/25 07:35:55;;;;;;;8.38;5.35;;;;;;;;;;5050642;28;20041;-71
2022/07/25 07:38:22;;;;;;;7.35;5.35;;;;;;;;;;5045638;28;20041;-68
2022/07/25 07:40:47;;;;;;;8.82;5.60;;;;;;;;;;5037312;28;20458;-70
2022/07/25 07:43:13;;;;;;;8.60;5.68;;;;;;;;;;5048170;28;20020;-69
2022/07/25 07:45:38;;;;;;;8.07;5.45;;;;;;;;;;5050191;28;20063;-69
2022/07/25 07:48:05;;;;;;;8.35;5.25;;;;;;;;;;5050901;28;20036;-71
2022/07/25 07:50:31;;;;;;;12.05;6.10;;;;;;;;;;5046673;28;20049;-71
2022/07/25 07:52:57;;;;;;;8.23;5.43;;;;;;;;;;5049029;28;20518;-70
2022/07/25 07:58:20;;;;;;;7.60;5.38;;;;;;;;;;5010142;28;20053;-69
2022/07/25 08:00:48;;;;;;;9.38;5.07;;;;;;;;;;5031592;28;20675;-67
2022/07/25 08:03:18;;;;;;;9.23;5.55;;;;;;;;;;5043308;28;20037;-70
2022/07/25 08:05:44;;;;;;;;;;;;;;;;;;5048586;28;20033;-68
2022/07/25 08:08:11;;;;;;;9.18;5.28;;;;;;;;;;5013827;28;20238;-70
2022/07/25 08:10:40;;;;;;;12.30;5.43;;;;;;;;;;5033599;28;20111;-69
2022/07/25 08:13:21;;;;;;;8.07;5.18;;;;;;;;;;5036263;28;20033;-69
2022/07/25 08:15:52;;;;;;;10.07;5.40;;;;;;;;;;5037154;28;20033;-69
2022/07/25 08:18:19;;;;;;;6.97;5.47;;;;;;;;;;5035906;28;20060;-70
2022/07/25 08:20:45;;;;;;;8.05;5.57;;;;;;;;;;5051089;28;20052;-69
2022/07/25 08:23:11;;;;;;;8.40;5.63;;;;;;;;;;5051606;28;20036;-70
2022/07/25 08:25:37;;;;;;;7.68;5.70;;;;;;;;;;5041078;28;20044;-68
2022/07/25 08:28:03;;;;;;;6.60;5.30;;;;;;;;;;5031943;28;20021;-68
2022/07/25 08:30:29;;;;;;;10.60;5.40;;;;;;;;;;5026637;28;20040;-70
2022/07/25 08:32:59;;;;;;;8.55;5.45;;;;;;;;;;5031814;28;20038;-70
2022/07/25 08:35:25;;;;;;;11.00;6.10;;;;;;;;;;5038213;28;20029;-67
2022/07/25 08:37:52;;;;;;;9.30;5.45;;;;;;;;;;5034158;28;20345;-69
2022/07/25 08:40:20;;;;;;;9.60;5.60;;;;;;;;;;5050694;28;20131;-69
2022/07/25 08:42:46;;;;;;;8.30;5.72;;;;;;;;;;5034939;28;20118;-70
2022/07/25 08:45:13;;;;;;;9.23;5.30;;;;;;;;;;5031108;28;20171;-66
2022/07/25 08:47:39;;;;;;;10.73;5.80;;;;;;;;;;5030621;28;20502;-70
2022/07/25 08:50:07;;;;;;;7.72;5.50;;;;;;;;;;5031447;28;20048;-69
2022/07/25 08:52:34;;;;;;;13.00;5.63;;;;;;;;;;5031974;28;20497;-71
2022/07/25 08:55:04;;;;;;;18.90;6.35;;;;;;;;;;5031040;28;20312;-68
2022/07/25 08:57:30;;;;;;;;;;;;;;;;;;5047112;28;20040;-70
2022/07/25 08:59:57;;;;;;;15.00;5.90;;;;;;;;;;5051583;28;19913;-69
2022/07/25 09:02:27;;;;;;;7.75;5.88;;;;;;;;;;5050121;28;20091;-68
2022/07/25 09:04:54;;;;;;;7.90;5.80;;;;;;;;;;5048106;28;20055;-68
2022/07/25 09:07:36;;;;;;;14.98;6.07;;;;;;;;;;5045754;28;20048;-68
2022/07/25 09:10:17;;;;;;;10.07;6.18;;;;;;;;;;5051126;28;20557;-67
2022/07/25 09:12:57;;;;;;;12.13;6.10;;;;;;;;;;5046593;28;20036;-70
2022/07/25 09:15:30;;;;;;;9.50;5.88;;;;;;;;;;5051794;28;20053;-68
2022/07/25 09:18:00;;;;;;;6.78;5.28;;;;;;;;;;5033600;28;20108;-70
2022/07/25 09:20:51;;;;;;;7.82;5.50;;;;;;;;;;5031211;28;20044;-71
2022/07/25 09:23:35;;;;;;;7.88;5.70;;;;;;;;;;5047634;28;20033;-69
2022/07/25 09:26:10;;;;;;;9.55;5.68;;;;;;;;;;5043884;28;20040;-68
2022/07/25 09:28:48;;;;;;;7.85;5.40;;;;;;;;;;5030594;28;20029;-68
2022/07/25 09:31:15;;;;;;;12.65;5.45;;;;;;;;;;5037625;28;20029;-69
2022/07/25 09:33:53;;;;;;;9.52;5.40;;;;;;;;;;5031961;28;20037;-69
2022/07/25 09:36:18;;;;;;;9.43;5.47;;;;;;;;;;5041026;28;20464;-69
2022/07/25 09:38:54;;;;;;;6.95;5.18;;;;;;;;;;5041248;28;20117;-69
2022/07/25 09:41:20;;;;;;;8.32;5.40;;;;;;;;;;5030720;28;20406;-69
2022/07/25 09:43:46;;;;;;;11.68;5.68;;;;;;;;;;5030833;28;20056;-67
2022/07/25 09:46:12;;;;;;;8.13;5.78;;;;;;;;;;5031801;28;20033;-68
2022/07/25 09:48:39;;;;;;;9.98;5.82;;;;;;;;;;5033630;28;20033;-67
2022/07/25 09:51:06;;;;;;;8.20;5.47;;;;;;;;;;5050924;28;20074;-68
2022/07/25 09:53:31;;;;;;;9.00;5.90;;;;;;;;;;5042216;28;20543;-70
2022/07/25 09:55:58;;;;;;;7.43;5.70;;;;;;;;;;5054514;28;20045;-68
2022/07/25 09:58:24;;;;;;;10.95;5.55;;;;;;;;;;5051185;28;20115;-79
2022/07/25 10:00:52;;;;;;;9.60;5.65;;;;;;;;;;5053607;28;20068;-71
2022/07/25 10:03:51;;;;;;;10.90;5.80;;;;;;;;;;5053471;28;20052;-70
2022/07/25 10:06:20;;;;;;;8.98;5.57;;;;;;;;;;5042504;28;20041;-69
2022/07/25 10:08:48;;;;;;;7.72;5.65;;;;;;;;;;5052934;28;20029;-71
2022/07/25 10:11:24;;;;;;;8.65;5.60;;;;;;;;;;5053757;28;20029;-69
2022/07/25 10:13:52;;;;;;;8.63;5.68;;;;;;;;;;5033540;28;20029;-69
2022/07/25 10:16:23;;;;;;;10.65;5.85;;;;;;;;;;5054012;28;20061;-72
2022/07/25 10:18:51;;;;;;;8.18;5.90;;;;;;;;;;5029769;28;20672;-68
2022/07/25 10:21:17;;;;;;;8.13;5.75;;;;;;;;;;5037446;28;20033;-67
2022/07/25 10:23:43;;;;;;;11.15;5.18;;;;;;;;;;5043272;28;20036;-66
2022/07/25 10:26:10;;;;;;;7.85;5.72;;;;;;;;;;5052656;28;20029;-68
2022/07/25 10:28:38;;;;;;;12.38;5.57;;;;;;;;;;5052539;28;20060;-69
2022/07/25 10:31:17;;;;;;;9.50;6.07;;;;;;;;;;5045018;28;20041;-67
2022/07/25 10:33:46;;;;;;;8.25;6.05;;;;;;;;;;5032639;28;20045;-67
2022/07/25 10:36:11;;;;;;;11.52;6.05;;;;;;;;;;5051605;28;20029;-66
2022/07/25 10:38:41;;;;;;;9.07;5.97;;;;;;;;;;5040047;28;20040;-68
2022/07/25 10:41:09;;;;;;;19.55;6.32;;;;;;;;;;5039979;28;20102;-68
2022/07/25 10:43:39;;;;;;;12.70;6.00;;;;;;;;;;5047695;28;20072;-67
2022/07/25 10:46:18;;;;;;;9.30;6.25;;;;;;;;;;5043987;28;20037;-67
2022/07/25 10:48:44;;;;;;;10.18;5.95;;;;;;;;;;5030045;28;20083;-67
2022/07/25 10:51:12;;;;;;;9.40;5.53;;;;;;;;;;5049891;28;20036;-70
2022/07/25 10:53:42;;;;;;;7.28;5.30;;;;;;;;;;5034883;28;20482;-69
2022/07/25 10:56:19;;;;;;;7.75;5.35;;;;;;;;;;5032856;28;20085;-70
2022/07/25 10:58:47;;;;;;;9.02;5.70;;;;;;;;;;5032698;28;20078;-70
2022/07/25 11:01:14;;;;;;;10.77;5.25;;;;;;;;;;5034651;28;20063;-68
2022/07/25 11:03:45;;;;;;;11.15;6.15;;;;;;;;;;5049586;28;20111;-70
2022/07/25 11:06:15;;;;;;;9.05;5.18;;;;;;;;;;5042605;28;20505;-68
2022/07/25 11:08:43;;;;;;;9.20;5.80;;;;;;;;;;5032842;28;20466;-70
2022/07/25 11:11:10;;;;;;;10.15;5.40;;;;;;;;;;5039931;28;20044;-70
2022/07/25 11:13:39;;;;;;;9.43;5.63;;;;;;;;;;5048386;28;20112;-71
2022/07/25 11:16:06;;;;;;;11.18;5.60;;;;;;;;;;5047160;28;20359;-67
2022/07/25 11:18:38;;;;;;;7.70;5.57;;;;;;;;;;5042121;28;20029;-68
2022/07/25 11:21:06;;;;;;;8.15;5.47;;;;;;;;;;5042825;28;20433;-70
2022/07/25 11:23:32;;;;;;;14.43;5.80;;;;;;;;;;5036844;28;20037;-69
2022/07/25 11:26:08;;;;;;;7.95;5.47;;;;;;;;;;5037368;28;20436;-69
2022/07/25 11:28:45;;;;;;;9.98;5.40;;;;;;;;;;5028548;28;20037;-70
2022/07/25 11:31:13;;;;;;;7.63;5.05;;;;;;;;;;5036820;28;20497;-73
2022/07/25 11:33:39;;;;;;;10.88;5.25;;;;;;;;;;5043763;28;20060;-70
2022/07/25 11:36:06;;;;;;;8.52;5.75;;;;;;;;;;5050647;28;20033;-70
2022/07/25 11:38:32;;;;;;;9.48;5.53;;;;;;;;;;5031745;28;20048;-71
2022/07/25 11:40:57;;;;;;;8.80;5.00;;;;;;;;;;5031034;28;20033;-66
2022/07/25 11:43:24;;;;;;;7.13;4.80;;;;;;;;;;5034757;28;20041;-69
2022/07/25 11:46:05;;;;;;;6.72;4.82;;;;;;;;;;5050112;28;20040;-69
2022/07/25 11:48:39;;;;;;;10.25;4.70;;;;;;;;;;5050183;28;20098;-69
2022/07/25 11:51:17;;;;;;;6.60;4.85;;;;;;;;;;5047352;28;20040;-70
2022/07/25 11:53:45;;;;;;;10.48;4.50;;;;;;;;;;5042173;28;20780;-68
2022/07/25 11:56:17;;;;;;;8.65;4.70;;;;;;;;;;5034659;28;20045;-71
2022/07/25 11:58:49;;;;;;;8.25;4.15;;;;;;;;;;5043303;28;20039;-72
2022/07/25 12:01:15;;;;;;;12.85;4.45;;;;;;;;;;5036599;28;20124;-72
2022/07/25 12:03:41;;;;;;;6.00;3.95;;;;;;;;;;5038183;28;20108;-69
2022/07/25 12:06:08;;;;;;;11.68;4.15;;;;;;;;;;5033185;28;20060;-69
2022/07/25 12:08:40;;;;;;;9.60;4.35;;;;;;;;;;5016203;28;20045;-72
2022/07/25 12:11:20;;;;;;;7.10;4.20;;;;;;;;;;5047092;28;20070;-71
2022/07/25 12:13:46;;;;;;;;;;;;;;;;;;5031738;28;20061;-71
2022/07/25 12:16:12;;;;;;;7.07;4.00;;;;;;;;;;5038182;28;19956;-68
2022/07/25 12:18:38;;;;;;;6.32;3.70;;;;;;;;;;5039652;28;20485;-65
2022/07/25 12:21:04;;;;;;;7.80;4.30;;;;;;;;;;5042983;28;20474;-62
2022/07/25 12:23:29;;;;;;;11.88;4.00;;;;;;;;;;5048223;28;20037;-65
2022/07/25 12:25:55;;;;;;;10.02;4.00;;;;;;;;;;5039044;28;20036;-65
2022/07/25 12:28:20;;;;;;;5.13;3.67;;;;;;;;;;5034209;28;20037;-66
2022/07/25 12:30:47;;;;;;;9.65;3.85;;;;;;;;;;5027938;28;20474;-66
2022/07/25 12:33:13;;;;;;;5.30;3.42;;;;;;;;;;5032593;28;20119;-65
2022/07/25 12:35:43;;;;;;;6.80;3.63;;;;;;;;;;5049243;28;20079;-67
2022/07/25 12:38:09;;;;;;;8.68;3.55;;;;;;;;;;5043417;28;20079;-64
2022/07/25 12:40:35;;;;;;;6.65;3.78;;;;;;;;;;5039627;28;20374;-67
2022/07/25 12:43:01;;;;;;;5.97;3.30;;;;;;;;;;5031790;28;20079;-65
2022/07/25 12:45:26;;;;;;;5.30;3.20;;;;;;;;;;5044058;28;20052;-64
2022/07/25 12:47:52;;;;;;;5.03;3.45;;;;;;;;;;5049791;28;20029;-65
2022/07/25 12:50:17;;;;;;;9.23;3.33;;;;;;;;;;5051345;28;20090;-66
2022/07/25 12:52:44;;;;;;;11.55;3.65;;;;;;;;;;5048739;28;20355;-65
2022/07/25 12:55:12;;;;;;;4.70;3.30;;;;;;;;;;5041170;28;20052;-66
2022/07/25 12:57:38;;;;;;;7.18;3.53;;;;;;;;;;5030312;28;20084;-68
2022/07/25 13:00:09;;;;;;;7.13;3.40;;;;;;;;;;5040113;28;20057;-68
2022/07/25 13:02:34;;;;;;;5.50;3.38;;;;;;;;;;5051102;28;20047;-66
2022/07/25 13:05:00;;;;;;;10.82;3.90;;;;;;;;;;5039589;28;20041;-66
2022/07/25 13:07:26;;;;;;;7.78;3.70;;;;;;;;;;5041089;28;20021;-66
2022/07/25 13:09:51;;;;;;;5.43;3.17;;;;;;;;;;5043971;28;20088;-67
2022/07/25 13:12:17;;;;;;;8.43;3.10;;;;;;;;;;5042927;28;20029;-66
2022/07/25 13:14:42;;;;;;;6.75;3.28;;;;;;;;;;5018831;28;20022;-66
2022/07/25 13:17:08;;;;;;;6.60;3.75;;;;;;;;;;5044385;28;20033;-65
2022/07/25 13:19:33;;;;;;;6.70;3.25;;;;;;;;;;5037524;28;20079;-65
2022/07/25 13:21:59;;;;;;;7.55;3.70;;;;;;;;;;5016666;28;20033;-64
2022/07/25 13:24:24;;;;;;;7.13;3.30;;;;;;;;;;5045543;28;20359;-64
2022/07/25 13:26:50;;;;;;;7.95;3.70;;;;;;;;;;5052502;28;20029;-64
2022/07/25 13:29:15;;;;;;;8.00;3.50;;;;;;;;;;5054276;28;20108;-66
2022/07/25 13:31:41;;;;;;;7.40;3.85;;;;;;;;;;5045218;28;20116;-68
2022/07/25 13:34:07;;;;;;;11.63;3.88;;;;;;;;;;5036791;28;20028;-65
2022/07/25 13:36:35;;;;;;;11.23;4.25;;;;;;;;;;5047918;28;20025;-64
2022/07/25 13:39:01;;;;;;;5.50;3.45;;;;;;;;;;5035278;28;20188;-65
2022/07/25 13:41:26;;;;;;;6.50;3.50;;;;;;;;;;5038791;28;20022;-65
2022/07/25 13:43:52;;;;;;;6.30;3.90;;;;;;;;;;5034021;28;20040;-67
2022/07/25 13:46:18;;;;;;;9.63;3.67;;;;;;;;;;5034705;28;20060;-65
2022/07/25 13:48:43;;;;;;;9.43;3.78;;;;;;;;;;5047098;28;20036;-67
2022/07/25 13:51:09;;;;;;;5.53;3.40;;;;;;;;;;5040977;28;20128;-65
2022/07/25 13:53:34;;;;;;;5.90;4.30;;;;;;;;;;5036568;28;20044;-71
2022/07/25 13:56:00;;;;;;;9.07;4.57;;;;;;;;;;5039263;28;20045;-67
2022/07/25 13:58:26;;;;;;;9.20;5.57;;;;;;;;;;5045104;28;20032;-67
2022/07/25 14:00:52;;;;;;;6.55;4.53;;;;;;;;;;5039088;28;20035;-67
2022/07/25 14:03:17;;;;;;;11.57;4.40;;;;;;;;;;5051072;28;20037;-65
2022/07/25 14:05:43;;;;;;;5.90;3.75;;;;;;;;;;5053671;28;20025;-66
2022/07/25 14:08:08;;;;;;;5.32;3.50;;;;;;;;;;5052654;28;20123;-65
2022/07/25 14:10:34;;;;;;;6.28;3.40;;;;;;;;;;5053198;28;20036;-67
2022/07/25 14:13:00;;;;;;;6.53;3.42;;;;;;;;;;5035619;28;20082;-65
2022/07/25 14:15:26;;;;;;;5.45;3.55;;;;;;;;;;5035294;28;20041;-67
2022/07/25 14:17:51;;;;;;;5.55;3.15;;;;;;;;;;5049910;28;20037;-66
2022/07/25 14:20:17;;;;;;;6.30;3.60;;;;;;;;;;5049829;28;20036;-64
2022/07/25 14:22:43;;;;;;;4.13;3.10;;;;;;;;;;5041272;28;20026;-64
2022/07/25 14:25:09;;;;;;;7.13;3.65;;;;;;;;;;5044593;28;20113;-64
2022/07/25 14:27:35;;;;;;;6.50;3.75;;;;;;;;;;5046996;28;20029;-64
2022/07/25 14:30:01;;;;;;;8.63;3.72;;;;;;;;;;5052071;28;20112;-64
2022/07/25 14:32:26;;;;;;;6.00;3.35;;;;;;;;;;5048131;28;20398;-64
2022/07/25 14:34:52;;;;;;;5.55;3.00;;;;;;;;;;5041731;28;20064;-63
2022/07/25 14:37:19;;;;;;;5.88;3.00;;;;;;;;;;5037057;28;20112;-65
2022/07/25 14:39:45;;;;;;;4.07;2.92;;;;;;;;;;5043290;28;20091;-64
2022/07/25 14:42:11;;;;;;;5.57;3.17;;;;;;;;;;5035990;28;20032;-63